Vichigasta, Argentina
Current Conditions -  °F | °C
As of 12:00 PM on Sunday 21 Dec 2014 (Local Time) from SCSE Reporting Station
Few Clouds Few Clouds  
Wind Chill: 64°   Ceiling: Unl
Heat Index: 64°   Visibility: 6mi
Dew Point: 52°   Wind: 12mph
Humidity: 64%   Direction: 300°WNW
Pressure: 30.03"   Gusts: NA
Location:  29.48°S, 67.52°W
Report Text: SCSE 211500Z 30010KT 9999 FEW015 18/11 Q1017
Loading
Personal Weather Stations






























Interactive Weather Map New forecast layout! Learn more

10-Day Weather Forecast

Advertisements
Track Severe Weather on mobile